Date,TemperatureHighF,TemperatureAvgF,TemperatureLowF,DewpointHighF,DewpointAvgF,DewpointLowF,HumidityHigh,HumidityAvg,HumidityLow,PressureMaxIn,PressureMinIn,WindSpeedMaxMPH,WindSpeedAvgMPH,GustSpeedMaxMPH,PrecipitationSumIn
2013-1-1,37.9,29.5,17.1,0.0,0.0,0.0,0,0,100,29.89,29.66,27,8,32,0.00
2013-1-2,29.1,18.1,6.7,0.0,0.0,0.0,0,0,100,30.09,29.87,24,6,27,0.00
2013-1-3,23.7,13.1,3.4,0.0,0.0,0.0,0,0,100,30.11,29.96,18,3,18,0.00
2013-1-4,36.8,29.0,16.1,0.0,0.0,0.0,0,0,100,29.96,29.76,25,6,27,0.00
2013-1-5,40.2,32.2,22.7,0.0,0.0,0.0,0,0,100,30.25,29.77,22,4,25,0.00
2013-1-6,43.2,32.9,22.8,0.0,0.0,0.0,0,0,100,30.21,29.90,15,2,17,0.00
2013-1-7,38.0,31.6,26.9,0.0,0.0,0.0,0,0,100,30.39,29.92,15,2,15,0.00
2013-1-8,46.2,35.5,26.7,0.0,0.0,0.0,0,0,100,30.34,30.21,20,5,22,0.00
2013-1-9,42.6,35.4,26.4,0.0,0.0,0.0,0,0,100,30.39,29.93,25,3,25,0.00
2013-1-10,45.9,39.9,31.8,0.0,0.0,0.0,0,0,100,30.51,29.96,34,8,40,0.00
2013-1-11,41.4,35.0,26.7,0.0,0.0,0.0,0,0,100,30.50,30.21,17,2,17,0.11
2013-1-12,44.2,40.7,38.2,0.0,0.0,0.0,0,0,100,30.21,30.10,15,1,15,0.01
2013-1-13,49.7,44.7,40.8,0.0,0.0,0.0,0,0,100,30.13,29.95,12,1,13,0.00
2013-1-14,61.9,50.0,39.8,0.0,0.0,0.0,0,0,100,30.23,29.80,19,5,21,0.00
2013-1-15,42.6,37.2,32.2,0.0,0.0,0.0,0,0,100,30.30,30.20,11,1,12,0.00
2013-1-16,33.9,31.6,29.3,0.0,0.0,0.0,0,0,100,30.24,29.79,6,0,6,0.01
2013-1-17,42.2,33.0,26.9,0.0,0.0,0.0,0,0,100,30.08,29.79,19,6,20,0.36
2013-1-18,27.0,20.0,13.9,0.0,0.0,0.0,0,0,100,30.41,30.05,26,6,27,0.00
2013-1-19,46.3,35.6,20.0,0.0,0.0,0.0,0,0,100,30.36,29.84,28,8,32,0.00
2013-1-20,53.7,39.8,27.2,0.0,0.0,0.0,0,0,100,29.88,29.47,37,10,38,0.00
2013-1-21,29.7,24.6,20.4,0.0,0.0,0.0,0,0,100,30.06,29.76,24,4,24,0.00
2013-1-22,26.9,20.1,12.3,0.0,0.0,0.0,0,0,100,30.05,29.73,23,6,26,0.00
2013-1-23,13.8,8.7,2.7,0.0,0.0,0.0,0,0,100,30.13,30.04,24,7,25,0.00
2013-1-24,15.5,7.9,-0.5,0.0,0.0,0.0,0,0,100,30.18,30.01,32,10,33,0.00
2013-1-25,22.0,14.5,6.5,0.0,0.0,0.0,0,0,100,30.25,30.05,27,6,31,0.00
2013-1-26,26.3,17.4,12.2,0.0,0.0,0.0,0,0,100,30.18,29.99,27,6,29,0.00
2013-1-27,28.7,19.6,12.9,0.0,0.0,0.0,0,0,100,30.44,30.17,26,8,28,0.00
2013-1-28,30.1,23.0,16.9,0.0,0.0,0.0,0,0,100,30.43,30.02,12,1,12,0.00
2013-1-29,36.7,29.4,23.7,0.0,0.0,0.0,0,0,100,30.19,30.02,9,0,9,0.16
2013-1-30,58.9,45.1,32.5,0.0,0.0,0.0,0,0,100,30.15,29.43,27,5,29,0.21
2013-1-31,60.9,46.0,30.4,0.0,0.0,0.0,0,0,100,29.53,28.89,39,12,43,0.34
2013-2-1,35.2,27.8,19.3,0.0,0.0,0.0,0,0,100,30.05,29.53,26,8,28,0.00
2013-2-2,31.7,24.2,16.6,0.0,0.0,0.0,0,0,100,30.21,30.02,14,2,14,0.00
2013-2-3,29.0,25.2,21.7,0.0,0.0,0.0,0,0,100,30.03,29.69,14,2,14,0.00
2013-2-4,32.7,25.1,20.5,0.0,0.0,0.0,0,0,100,29.89,29.69,28,6,28,0.00
2013-2-5,30.2,24.1,18.8,0.0,0.0,0.0,0,0,100,30.02,29.89,14,3,14,0.00
2013-2-6,41.7,29.5,22.6,0.0,0.0,0.0,0,0,100,30.29,29.92,23,3,23,0.01
2013-2-7,30.9,22.8,16.1,0.0,0.0,0.0,0,0,100,30.52,30.27,19,3,20,0.00
2013-2-8,31.9,25.7,16.4,0.0,0.0,0.0,0,0,100,30.49,29.65,43,8,45,0.00
2013-2-9,24.4,18.3,13.6,0.0,0.0,0.0,0,0,100,30.14,29.58,28,2,30,0.00
2013-2-10,40.4,24.0,11.3,0.0,0.0,0.0,0,0,100,30.36,30.14,12,0,12,0.00
2013-2-11,37.7,29.8,20.1,0.0,0.0,0.0,0,0,100,30.33,29.58,19,1,21,0.35
2013-2-12,45.9,37.5,33.2,0.0,0.0,0.0,0,0,100,29.82,29.55,26,5,29,0.00
2013-2-13,46.9,35.4,28.6,0.0,0.0,0.0,0,0,100,29.84,29.69,16,2,17,0.00
2013-2-14,45.9,36.1,29.9,0.0,0.0,0.0,0,0,100,29.97,29.68,17,3,17,0.00
2013-2-15,51.2,37.8,28.7,0.0,0.0,0.0,0,0,100,29.97,29.87,15,2,15,0.00
2013-2-16,41.2,34.7,30.8,0.0,0.0,0.0,0,0,100,29.94,29.70,21,3,21,0.00
2013-2-17,31.0,21.9,16.1,0.0,0.0,0.0,0,0,100,29.70,29.30,42,13,48,0.00
2013-2-18,33.2,22.9,14.5,0.0,0.0,0.0,0,0,100,30.10,29.57,35,11,42,0.00
2013-2-19,42.4,33.3,22.6,0.0,0.0,0.0,0,0,100,30.13,29.54,20,4,21,0.51
2013-2-20,40.5,33.0,26.6,0.0,0.0,0.0,0,0,100,29.73,29.48,27,5,31,0.00
2013-2-21,32.4,26.7,23.7,0.0,0.0,0.0,0,0,100,30.15,29.71,25,7,26,0.00
2013-2-22,43.9,32.5,22.4,0.0,0.0,0.0,0,0,100,30.37,30.14,20,2,25,0.00
2013-2-23,37.7,35.4,31.2,0.0,0.0,0.0,0,0,100,30.33,29.95,18,4,21,0.02
2013-2-24,37.7,33.6,29.6,0.0,0.0,0.0,0,0,100,29.95,29.71,25,4,28,0.48
2013-2-25,45.6,33.8,27.9,0.0,0.0,0.0,0,0,100,30.23,29.89,7,0,7,0.26
2013-2-26,49.9,37.5,28.4,0.0,0.0,0.0,0,0,100,30.34,30.18,17,2,18,0.00
2013-2-27,41.3,38.4,35.3,0.0,0.0,0.0,0,0,100,30.19,29.54,34,12,36,2.69
2013-2-28,49.1,38.5,32.9,0.0,0.0,0.0,0,0,100,29.62,29.51,10,0,12,0.01
2013-3-1,46.5,36.9,33.3,0.0,0.0,0.0,0,0,100,29.66,29.53,14,2,16,0.00
2013-3-2,49.9,37.9,31.5,0.0,0.0,0.0,0,0,100,29.66,29.58,14,2,15,0.00
2013-3-3,41.2,35.2,30.6,0.0,0.0,0.0,0,0,100,29.62,29.53,17,3,18,0.05
2013-3-4,41.4,33.8,30.0,0.0,0.0,0.0,0,0,100,29.70,29.53,32,10,32,0.00
2013-3-5,45.7,37.2,30.3,0.0,0.0,0.0,0,0,100,30.06,29.70,19,3,21,0.00
2013-3-6,39.4,37.2,33.8,0.0,0.0,0.0,0,0,100,30.14,30.05,38,15,38,0.32
2013-3-7,35.7,32.8,30.4,0.0,0.0,0.0,0,0,100,30.11,30.00,33,6,35,0.04
2013-3-8,41.5,34.6,28.9,0.0,0.0,0.0,0,0,100,30.14,29.95,22,3,25,0.15
2013-3-9,47.6,37.3,30.1,0.0,0.0,0.0,0,0,100,30.34,30.14,22,2,22,0.00
2013-3-10,44.2,35.3,26.4,0.0,0.0,0.0,0,0,100,30.40,30.29,14,2,15,0.00
2013-3-11,53.4,40.8,34.1,0.0,0.0,0.0,0,0,100,30.32,30.13,15,3,16,0.00
2013-3-12,45.5,42.7,39.4,0.0,0.0,0.0,0,0,100,30.15,29.70,18,2,20,0.28
2013-3-13,54.9,44.4,35.0,0.0,0.0,0.0,0,0,100,29.75,29.66,18,3,19,0.00
2013-3-14,38.9,32.4,22.1,0.0,0.0,0.0,0,0,100,29.79,29.66,32,6,33,0.00
2013-3-15,43.2,30.3,18.6,0.0,0.0,0.0,0,0,100,29.83,29.60,31,7,36,0.00
2013-3-16,42.2,33.6,27.0,0.0,0.0,0.0,0,0,100,29.88,29.61,22,3,27,0.00
2013-3-17,39.1,30.4,23.0,0.0,0.0,0.0,0,0,100,30.32,29.88,29,6,30,0.00
2013-3-18,39.2,29.1,17.1,0.0,0.0,0.0,0,0,100,30.45,30.25,19,5,21,0.00
2013-3-19,34.6,32.5,29.8,0.0,0.0,0.0,0,0,100,30.25,29.63,38,11,41,0.89
2013-3-20,36.8,32.4,26.1,0.0,0.0,0.0,0,0,100,29.78,29.68,25,7,25,0.33
2013-3-21,44.4,31.8,26.1,0.0,0.0,0.0,0,0,100,29.79,29.60,13,3,14,0.00
2013-3-22,47.4,35.1,28.4,0.0,0.0,0.0,0,0,100,29.69,29.58,19,3,23,0.00
2013-3-23,44.1,36.0,27.5,0.0,0.0,0.0,0,0,100,29.73,29.58,31,8,34,0.00
2013-3-24,55.0,39.6,31.4,0.0,0.0,0.0,0,0,100,29.78,29.70,21,3,22,0.00
2013-3-25,45.2,36.6,29.7,0.0,0.0,0.0,0,0,100,29.76,29.54,22,4,23,0.00
2013-3-26,55.3,43.0,31.5,0.0,0.0,0.0,0,0,100,29.74,29.53,20,2,20,0.00
2013-3-27,58.0,43.8,32.9,0.0,0.0,0.0,0,0,100,29.85,29.70,21,4,23,0.00
2013-3-28,54.3,42.4,36.4,0.0,0.0,0.0,0,0,100,29.99,29.85,14,2,15,0.02
2013-3-29,62.2,47.5,37.8,48.4,-0.1,-99.9,0,0,100,30.01,29.94,16,2,18,0.00
2013-3-30,59.2,46.8,36.6,47.1,0.2,0.0,0,0,100,30.08,29.98,16,3,16,0.01
2013-3-31,54.9,44.2,31.0,0.0,0.0,0.0,0,0,100,30.11,29.78,23,4,24,0.01
2013-4-1,63.2,45.7,34.4,0.0,0.0,0.0,0,0,100,29.78,29.47,25,6,30,0.30
2013-4-2,43.7,35.4,29.7,41.7,3.1,0.0,0,0,100,29.88,29.74,36,8,36,0.00
2013-4-3,48.4,37.6,29.7,48.4,37.6,29.7,0,0,100,30.10,29.87,35,18,35,0.00
2013-4-4,58.8,43.1,30.7,58.3,43.1,30.6,0,0,100,30.25,30.01,22,13,22,0.00
2013-4-5,48.4,42.6,38.1,0.0,0.0,0.0,0,0,100,29.85,29.71,26,9,29,0.00
2013-4-6,48.3,37.9,30.1,0.0,0.0,0.0,0,0,100,30.33,29.85,33,8,41,0.00
2013-4-7,55.2,42.1,27.4,0.0,0.0,0.0,0,0,100,30.33,29.96,29,6,32,0.00
2013-4-8,68.2,50.1,42.9,0.0,0.0,0.0,0,0,100,30.10,29.92,20,4,21,0.00
2013-4-9,67.8,51.2,42.4,0.0,0.0,0.0,0,0,100,30.09,29.84,22,4,24,0.12
2013-4-10,54.9,46.5,43.2,0.0,0.0,0.0,0,0,100,30.00,29.85,11,1,11,0.60
2013-4-11,52.2,44.3,40.8,0.0,0.0,0.0,0,0,100,30.14,29.83,11,2,12,0.11
2013-4-12,42.5,38.1,36.2,0.0,0.0,0.0,0,0,100,30.20,29.80,30,11,30,0.57
2013-4-13,51.1,40.3,34.5,0.0,0.0,0.0,0,0,100,29.91,29.75,26,3,29,0.06
2013-4-14,56.9,46.3,38.6,0.0,0.0,0.0,0,0,100,30.19,29.90,20,3,22,0.01
2013-4-15,55.8,44.3,33.6,0.0,0.0,0.0,0,0,100,30.38,30.19,17,3,18,0.00
2013-4-16,66.3,50.8,38.9,0.0,0.0,0.0,0,0,100,30.39,30.00,28,8,29,0.00
2013-4-17,68.8,57.6,44.8,0.0,0.0,0.0,0,0,100,30.31,30.00,28,5,30,0.00
2013-4-18,60.4,48.8,37.9,0.0,0.0,0.0,0,0,100,30.44,30.14,20,4,20,0.00
2013-4-19,78.0,60.8,46.4,0.0,0.0,0.0,0,0,100,30.14,29.61,29,9,34,0.00
2013-4-20,67.7,53.0,43.6,0.0,0.0,0.0,0,0,100,30.17,29.56,24,7,27,0.35
2013-4-21,57.1,43.6,34.0,0.0,0.0,0.0,0,0,100,30.67,30.17,28,4,28,0.00
2013-4-22,53.9,42.9,31.2,0.0,0.0,0.0,0,0,100,30.78,30.60,18,5,18,0.00
2013-4-23,41.7,40.9,39.7,0.0,0.0,0.0,0,0,100,30.60,30.13,26,8,27,0.10
2013-4-24,64.0,50.2,41.4,0.0,0.0,0.0,0,0,100,30.14,29.77,23,5,25,0.01
2013-4-25,68.7,56.5,46.1,0.0,0.0,0.0,0,0,100,30.25,29.78,23,5,26,0.05
2013-4-26,58.4,49.4,44.1,0.0,0.0,0.0,0,0,100,30.42,30.25,17,3,18,0.00
2013-4-27,61.7,50.5,38.4,0.0,0.0,0.0,0,0,100,30.41,30.28,14,3,14,0.00
2013-4-28,62.9,51.6,40.2,0.0,0.0,0.0,0,0,100,30.34,30.22,19,3,19,0.00
2013-4-29,65.0,53.0,45.6,0.0,0.0,0.0,0,0,100,30.26,30.18,17,3,19,0.00
2013-4-30,67.6,54.9,45.6,0.0,0.0,0.0,0,0,100,30.37,30.23,13,3,13,0.00
2013-5-1,63.1,52.9,40.3,0.0,0.0,0.0,0,0,100,30.47,30.36,14,2,14,0.00
2013-5-2,69.3,52.7,43.8,0.0,0.0,0.0,0,0,100,30.49,30.36,25,3,27,0.00
2013-5-3,59.7,50.3,44.4,0.0,0.0,0.0,0,0,100,30.53,30.36,20,3,23,0.00
2013-5-4,59.1,49.4,40.8,0.0,0.0,0.0,0,0,100,30.38,30.31,15,1,17,0.00
2013-5-5,61.0,49.0,36.6,0.0,0.0,0.0,0,0,100,30.33,30.25,14,2,16,0.00
2013-5-6,59.7,48.3,37.5,0.0,0.0,0.0,0,0,100,30.28,30.15,14,1,14,0.01
2013-5-7,68.2,55.6,41.6,0.0,0.0,0.0,0,0,100,30.17,30.08,19,3,20,0.00
2013-5-8,65.8,57.4,52.0,0.0,0.0,0.0,0,0,100,30.22,30.05,12,1,12,0.03
2013-5-9,58.3,54.6,53.0,0.0,0.0,0.0,0,0,100,30.06,29.88,14,1,14,0.80
2013-5-10,66.3,57.7,53.6,0.0,0.0,0.0,0,0,100,29.94,29.87,17,2,17,0.00
2013-5-11,70.4,61.4,54.6,0.0,0.0,0.0,0,0,100,29.89,29.67,23,6,28,0.17
2013-5-12,73.0,59.2,49.6,0.0,0.0,0.0,0,0,100,29.76,29.53,24,3,24,0.08
2013-5-13,61.4,51.3,43.3,0.0,0.0,0.0,0,0,100,30.00,29.76,21,6,26,0.00
2013-5-14,63.9,51.6,41.0,0.0,0.0,0.0,0,0,100,30.03,29.92,20,3,20,0.00
2013-5-15,67.0,52.6,40.1,0.0,0.0,0.0,0,0,100,30.04,29.64,23,5,23,0.09
2013-5-16,82.7,66.7,48.8,0.0,0.0,0.0,0,0,100,29.78,29.58,26,4,27,0.01
2013-5-17,69.1,57.5,50.2,0.0,0.0,0.0,0,0,100,30.19,29.78,18,4,20,0.00
2013-5-18,66.6,55.8,45.7,0.0,0.0,0.0,0,0,100,30.29,30.19,14,2,15,0.00
2013-5-19,61.7,53.9,50.8,0.0,0.0,0.0,0,0,100,30.35,30.22,14,2,16,0.04
2013-5-20,81.5,61.8,51.0,0.0,0.0,0.0,0,0,100,30.22,29.89,13,2,13,0.03
2013-5-21,59.8,53.3,49.5,0.0,0.0,0.0,0,0,100,30.04,29.91,22,5,24,0.17
2013-5-22,56.2,51.9,48.9,0.0,0.0,0.0,0,0,100,30.06,29.86,18,0,18,1.32
2013-5-23,74.6,59.6,50.7,0.0,0.0,0.0,0,0,100,29.92,29.78,22,3,24,0.08
2013-5-24,69.8,59.6,50.3,0.0,0.0,0.0,0,0,100,29.81,29.62,15,3,16,0.23
2013-5-25,51.2,47.7,39.2,0.0,0.0,0.0,0,0,100,29.80,29.65,21,4,28,0.00
2013-5-26,59.4,48.5,38.9,0.0,0.0,0.0,0,0,100,30.04,29.64,24,8,28,0.01
2013-5-27,72.6,58.9,42.5,0.0,0.0,0.0,0,0,100,30.15,30.03,20,5,24,0.02
2013-5-28,70.0,57.5,45.7,0.0,0.0,0.0,0,0,100,30.23,30.15,8,2,9,0.02
2013-5-29,62.2,56.2,52.4,0.0,0.0,0.0,0,0,100,30.16,29.97,13,1,13,0.02
2013-5-30,89.3,74.6,54.8,0.0,0.0,0.0,0,0,100,30.03,29.95,19,2,19,0.03
2013-5-31,97.8,82.8,67.6,0.0,0.0,0.0,0,0,100,30.04,29.87,18,4,19,0.04
2013-6-1,99.3,83.8,70.3,0.0,0.0,0.0,0,0,100,29.92,29.79,20,6,22,0.00
2013-6-2,94.8,79.7,65.9,0.0,0.0,0.0,0,0,100,29.82,29.66,31,7,37,0.00
2013-6-3,79.5,68.0,59.9,0.0,0.0,0.0,0,0,100,29.82,29.70,15,4,17,0.27
2013-6-4,72.2,62.8,52.6,0.0,0.0,0.0,0,0,100,30.07,29.78,24,5,24,0.00
2013-6-5,72.3,61.0,51.3,0.0,0.0,0.0,0,0,100,30.15,30.06,17,3,20,0.00
2013-6-6,67.8,60.6,55.0,0.0,0.0,0.0,0,0,100,30.17,30.09,12,2,13,0.01
2013-6-7,56.8,53.8,51.7,0.0,0.0,0.0,0,0,100,30.10,29.82,24,7,26,2.07
2013-6-8,79.3,63.3,51.7,0.0,0.0,0.0,0,0,100,29.96,29.60,23,4,26,1.01
2013-6-9,83.3,70.6,56.8,0.0,0.0,0.0,0,0,100,30.13,29.96,14,2,16,0.00
2013-6-10,73.8,61.6,56.4,0.0,0.0,0.0,0,0,100,30.20,30.02,10,1,10,0.42
2013-6-11,59.6,55.2,53.3,0.0,0.0,0.0,0,0,100,30.02,29.56,23,4,25,1.84
2013-6-12,70.1,61.2,54.6,0.0,0.0,0.0,0,0,100,29.77,29.53,22,4,22,0.10
2013-6-13,71.1,59.5,53.5,0.0,0.0,0.0,0,0,100,29.79,29.69,12,1,13,0.21
2013-6-14,77.0,61.7,52.7,0.0,0.0,0.0,0,0,100,29.74,29.64,15,2,16,0.63
2013-6-15,81.1,68.5,56.8,0.0,0.0,0.0,0,0,100,29.89,29.74,16,2,18,0.00
2013-6-16,82.4,68.4,56.4,0.0,0.0,0.0,0,0,100,29.90,29.67,17,3,19,0.00
2013-6-17,89.8,71.0,60.2,0.0,0.0,0.0,0,0,100,29.86,29.72,34,3,34,0.03
2013-6-18,75.3,62.8,57.8,0.0,0.0,0.0,0,0,100,29.93,29.85,10,1,11,0.16
2013-6-19,74.0,64.0,55.3,0.0,0.0,0.0,0,0,100,30.11,29.90,15,2,16,0.00
2013-6-20,75.8,65.0,52.3,0.0,0.0,0.0,0,0,100,30.24,30.11,14,3,14,0.00
2013-6-21,86.8,70.4,59.4,0.0,0.0,0.0,0,0,100,30.21,30.16,13,3,13,0.00
2013-6-22,87.8,74.6,62.4,0.0,0.0,0.0,0,0,100,30.18,30.06,20,4,20,0.00
2013-6-23,91.8,74.0,60.9,0.0,0.0,0.0,0,0,100,30.11,29.92,18,3,26,0.04
2013-6-24,97.2,81.4,65.3,0.0,0.0,0.0,0,0,100,29.96,29.81,41,4,41,0.04
2013-6-25,97.7,80.4,66.5,0.0,0.0,0.0,0,0,100,29.88,29.68,22,4,24,0.31
2013-6-26,88.2,70.8,59.5,0.0,0.0,0.0,0,0,100,29.85,29.68,18,2,19,0.70
2013-6-27,64.8,60.9,57.7,0.0,-0.1,-99.9,0,0,100,29.87,29.76,18,3,21,0.11
2013-6-28,74.6,64.4,55.9,0.0,0.0,0.0,0,0,100,29.77,29.45,25,6,26,0.39
2013-6-29,81.1,71.5,63.2,0.0,0.0,0.0,0,0,100,29.68,29.49,19,4,22,0.00
2013-6-30,82.3,72.7,64.3,0.0,0.0,0.0,0,0,100,29.90,29.68,15,4,16,0.00
2013-7-1,71.9,67.6,64.1,0.0,0.0,0.0,0,0,100,30.05,29.90,14,2,14,3.42
2013-7-2,70.5,62.9,57.4,0.0,0.0,0.0,0,0,100,30.20,30.05,19,2,20,0.04
2013-7-3,81.5,68.0,58.0,0.0,0.0,0.0,0,0,100,30.20,30.07,14,2,14,0.01
2013-7-4,99.3,84.4,72.9,0.0,0.0,0.0,0,0,100,30.15,30.02,16,5,17,0.00
2013-7-5,100.8,86.5,76.4,0.0,0.0,0.0,0,0,100,30.11,29.97,19,5,19,0.00
2013-7-6,93.3,84.1,73.9,0.0,0.0,0.0,0,0,100,30.03,29.92,15,3,19,0.00
2013-7-7,96.9,79.8,70.9,0.0,0.0,0.0,0,0,100,29.98,29.88,12,2,13,0.00
2013-7-8,79.8,71.5,64.8,0.0,0.0,0.0,0,0,100,30.05,29.87,16,4,19,0.00
2013-7-9,74.8,67.1,63.5,0.0,0.0,0.0,0,0,100,30.09,30.02,13,2,14,0.00
2013-7-10,78.0,69.6,63.1,0.0,0.0,0.0,0,0,100,30.07,29.75,12,2,12,0.02
2013-7-11,86.3,75.2,69.3,0.0,0.0,0.0,0,0,100,29.91,29.72,14,2,21,0.06
2013-7-12,77.0,71.2,67.3,0.0,0.0,0.0,0,0,100,30.18,29.91,22,3,24,0.00
2013-7-13,80.1,70.7,65.2,0.0,0.0,0.0,0,0,100,30.30,30.18,10,2,10,0.00
2013-7-14,94.0,76.7,67.2,0.0,0.0,0.0,0,0,100,30.27,30.17,10,2,10,0.00
2013-7-15,93.8,79.6,70.5,0.0,0.0,0.0,0,0,100,30.17,30.05,11,2,12,0.00
2013-7-16,96.8,80.3,69.4,0.0,0.0,0.0,0,0,100,30.13,30.07,10,2,10,0.00
2013-7-17,88.0,78.8,70.2,0.0,0.0,0.0,0,0,100,30.15,29.93,18,5,19,0.00
2013-7-18,92.3,78.3,71.5,0.0,0.0,0.0,0,0,100,29.99,29.90,14,3,15,0.01
2013-7-19,101.6,85.3,69.4,0.0,0.0,0.0,0,0,100,29.91,29.65,29,6,29,0.00
2013-7-20,99.0,83.4,71.8,0.0,0.0,0.0,0,0,100,29.76,29.60,26,4,29,0.18
2013-7-21,81.6,72.7,67.7,0.0,0.0,0.0,0,0,100,29.97,29.76,11,3,11,0.00
2013-7-22,80.5,70.8,67.1,0.0,0.0,0.0,0,0,100,30.01,29.87,11,3,12,0.00
2013-7-23,71.9,68.3,65.7,0.0,0.0,0.0,0,0,100,29.87,29.51,14,2,16,1.09
2013-7-24,91.4,75.6,64.8,0.0,0.0,0.0,0,0,100,29.95,29.55,19,3,19,0.05
2013-7-25,65.8,62.1,60.3,0.0,0.0,0.0,0,0,100,30.10,29.94,17,3,18,0.12
2013-7-26,74.0,66.5,61.1,0.0,0.0,0.0,0,0,100,30.04,29.88,19,4,21,0.06
2013-7-27,91.8,72.9,61.8,0.0,0.0,0.0,0,0,100,30.01,29.94,16,4,16,0.00
2013-7-28,74.4,67.1,63.3,0.0,0.0,0.0,0,0,100,30.00,29.96,19,2,20,0.03
2013-7-29,75.0,68.3,63.4,0.0,0.0,0.0,0,0,100,30.02,29.93,12,1,14,0.01
2013-7-30,86.5,73.7,62.1,0.0,0.0,0.0,0,0,100,30.06,29.99,14,2,18,0.00
2013-7-31,83.2,71.3,61.0,0.0,0.0,0.0,0,0,100,30.10,30.01,14,3,17,0.00
2013-8-1,83.3,71.8,62.5,0.0,0.0,0.0,0,0,100,30.02,29.85,16,3,19,0.00
2013-8-2,84.5,71.4,63.2,0.0,0.0,0.0,0,0,100,29.85,29.74,16,2,18,0.56
2013-8-3,83.9,72.8,64.4,0.0,0.0,0.0,0,0,100,29.82,29.72,17,4,18,0.00
2013-8-4,85.2,70.8,60.6,0.0,0.0,0.0,0,0,100,29.84,29.73,14,3,17,0.00
2013-8-5,78.3,66.5,56.8,0.0,0.0,0.0,0,0,100,30.02,29.84,21,5,23,0.00
2013-8-6,81.0,65.6,52.7,0.0,0.0,0.0,0,0,100,30.13,30.02,12,2,13,0.00
2013-8-7,80.0,66.9,55.6,0.0,0.0,0.0,0,0,100,30.16,30.08,16,3,16,0.00
2013-8-8,85.5,72.3,62.1,0.0,0.0,0.0,0,0,100,30.10,29.96,18,3,19,0.02
2013-8-9,72.8,68.8,63.7,0.0,0.0,0.0,0,0,100,30.00,29.69,22,2,24,1.61
2013-8-10,85.2,74.2,63.3,0.0,0.0,0.0,0,0,100,29.99,29.74,19,3,20,0.01
2013-8-11,83.6,69.4,55.5,0.0,0.0,0.0,0,0,100,30.05,29.96,18,2,18,0.00
2013-8-12,87.9,71.3,58.8,0.0,0.0,0.0,0,0,100,29.99,29.88,12,2,14,0.00
2013-8-13,70.8,65.9,62.3,0.0,0.0,0.0,0,0,100,29.89,29.66,11,2,11,0.01
2013-8-14,77.0,67.8,60.5,0.0,0.0,0.0,0,0,100,29.92,29.63,23,5,26,0.00
2013-8-15,84.0,67.7,54.6,0.0,0.0,0.0,0,0,100,30.08,29.92,16,2,16,0.00
2013-8-16,86.1,68.5,55.3,0.0,0.0,0.0,0,0,100,30.15,30.06,14,2,16,0.00
2013-8-17,81.3,66.9,57.0,0.0,0.0,0.0,0,0,100,30.26,30.15,10,2,11,0.00
2013-8-18,79.5,67.9,57.9,0.0,0.0,0.0,0,0,100,30.25,30.05,16,2,16,0.00
2013-8-19,86.1,73.0,61.5,0.0,0.0,0.0,0,0,100,30.05,29.89,13,3,16,0.00
2013-8-20,90.0,73.0,63.5,0.0,0.0,0.0,0,0,100,30.05,29.93,12,2,12,0.00
2013-8-21,87.1,73.8,63.4,0.0,0.0,0.0,0,0,100,30.10,29.97,12,2,12,0.00
2013-8-22,94.7,78.7,67.1,0.0,0.0,0.0,0,0,100,29.99,29.77,17,5,20,0.00
2013-8-23,83.0,71.9,64.3,0.0,0.0,0.0,0,0,100,30.10,29.77,17,2,18,0.00
2013-8-24,79.2,65.3,53.9,0.0,0.0,0.0,0,0,100,30.30,30.10,10,1,10,0.00
2013-8-25,82.5,67.1,54.5,0.0,0.0,0.0,0,0,100,30.34,30.13,15,2,16,0.00
2013-8-26,88.5,73.4,62.8,0.0,0.0,0.0,0,0,100,30.14,29.82,17,4,18,0.00
2013-8-27,81.3,72.2,65.8,0.0,0.0,0.0,0,0,100,29.88,29.80,12,1,13,0.00
2013-8-28,77.9,67.3,62.5,0.0,0.0,0.0,0,0,100,29.98,29.84,13,1,15,0.00
2013-8-29,65.8,64.3,63.1,0.0,0.0,0.0,0,0,100,30.07,29.94,18,2,21,0.02
2013-9-3,71.8,68.2,64.4,0.0,0.0,0.0,0,0,100,29.76,29.67,11,2,15,0.20
2013-9-4,84.7,70.9,59.7,0.0,0.0,0.0,0,0,100,29.87,29.75,16,3,18,0.00
2013-9-5,71.2,62.8,52.8,0.0,0.0,0.0,0,0,100,30.13,29.82,15,2,17,0.01
2013-9-6,75.8,60.1,46.3,0.0,0.0,0.0,0,0,100,30.22,30.05,14,2,14,0.00
2013-9-7,85.8,67.3,52.1,0.0,0.0,0.0,0,0,100,30.05,29.80,13,4,14,0.00
2013-9-8,74.5,65.2,51.9,0.0,0.0,0.0,0,0,100,30.07,29.70,27,3,28,0.00
2013-9-9,77.0,59.9,45.7,0.0,0.0,0.0,0,0,100,30.22,30.07,14,2,15,0.00
2013-9-10,72.2,65.1,56.4,0.0,0.0,0.0,0,0,100,30.13,30.00,23,3,23,0.05
2013-9-11,100.2,80.2,64.1,0.0,0.0,0.0,0,0,100,30.02,29.88,22,4,25,0.03
2013-9-12,90.6,71.8,64.3,0.0,0.0,0.0,0,0,100,29.93,29.64,19,2,20,1.20
2013-9-13,76.6,64.9,58.0,0.0,0.0,0.0,0,0,100,29.72,29.54,15,1,16,0.36
2013-9-14,72.4,60.6,53.8,0.0,0.0,0.0,0,0,100,30.02,29.71,16,3,16,0.07
2013-9-15,78.3,61.7,49.9,0.0,0.0,0.0,0,0,100,30.13,30.01,16,3,16,0.00
2013-9-16,69.6,58.5,47.4,0.0,0.0,0.0,0,0,100,30.24,29.96,20,4,21,0.01
2013-9-17,66.3,53.2,40.7,0.0,0.0,0.0,0,0,100,30.41,30.24,19,3,22,0.00
2013-9-18,80.5,61.3,45.8,0.0,0.0,0.0,0,0,100,30.29,30.10,12,2,14,0.00
2013-9-19,75.7,61.5,50.4,0.0,0.0,0.0,0,0,100,30.11,30.00,8,1,8,0.00
2013-9-20,75.1,62.2,51.2,0.0,0.0,0.0,0,0,100,30.08,29.98,9,1,9,0.00
2013-9-21,74.3,61.7,53.4,0.0,0.0,0.0,0,0,100,30.00,29.71,16,4,19,0.01
2013-9-22,73.0,62.8,52.4,0.0,0.0,0.0,0,0,100,29.78,29.57,21,5,24,0.45
2013-9-23,65.1,53.7,45.4,0.0,0.0,0.0,0,0,100,29.96,29.78,16,4,23,0.00
2013-9-24,67.0,53.9,43.6,0.0,0.0,0.0,0,0,100,29.96,29.79,21,4,22,0.00
2013-9-25,59.2,57.1,55.8,0.0,0.0,0.0,0,0,100,29.97,29.88,8,1,9,0.00
2013-9-26,70.3,58.9,51.0,0.0,0.0,0.0,0,0,100,30.11,29.96,14,1,15,0.00
2013-9-27,71.5,60.5,53.4,0.0,0.0,0.0,0,0,100,30.23,30.10,13,2,14,0.00
2013-9-28,72.0,58.8,49.8,0.0,0.0,0.0,0,0,100,30.31,30.22,14,1,15,0.01
2013-9-29,68.5,55.9,47.2,0.0,0.0,0.0,0,0,100,30.25,30.10,12,1,12,0.01
2013-9-30,65.0,53.7,45.9,0.0,0.0,0.0,0,0,100,30.11,29.95,9,1,9,0.00
2013-10-1,79.8,60.6,47.4,0.0,0.0,0.0,0,0,100,29.95,29.81,12,1,12,0.01
2013-10-2,82.4,68.2,56.1,0.0,0.0,0.0,0,0,100,29.90,29.77,16,3,17,0.00
2013-10-3,82.0,66.1,56.0,0.0,0.0,0.0,0,0,100,30.05,29.90,10,1,11,0.00
2013-10-4,66.3,60.0,52.6,0.0,0.0,0.0,0,0,100,30.07,30.01,9,1,10,0.00
2013-10-5,65.3,60.1,57.7,0.0,0.0,0.0,0,0,100,30.11,30.03,16,3,18,0.00
2013-10-6,58.9,56.3,53.7,0.0,0.0,0.0,0,0,100,30.23,30.10,24,8,24,0.16
2013-10-7,70.9,63.0,56.6,0.0,0.0,0.0,0,0,100,30.13,29.78,19,4,23,0.10
2013-10-8,66.9,55.7,47.4,0.0,0.0,0.0,0,0,100,30.36,30.18,16,2,16,0.00
2013-10-9,64.8,52.1,42.3,0.0,0.0,0.0,0,0,100,30.46,30.35,14,2,15,0.00
2013-10-10,63.5,52.0,42.5,0.0,0.0,0.0,0,0,100,30.35,30.17,10,2,10,0.00
2013-10-11,70.3,56.4,47.5,0.0,0.0,0.0,0,0,100,30.17,30.09,12,2,12,0.00
2013-10-12,57.3,54.7,49.6,0.0,0.0,0.0,0,0,100,30.39,30.13,23,6,24,0.00
2013-10-13,65.3,52.8,44.2,0.0,0.0,0.0,0,0,100,30.44,30.37,10,1,12,0.01
2013-10-14,66.0,52.0,40.0,0.0,0.0,0.0,0,0,100,30.38,30.22,14,3,15,0.00
2013-10-15,60.4,56.8,53.5,0.0,0.0,0.0,0,0,100,30.25,30.18,13,1,14,0.00
2013-10-17,64.8,59.5,58.1,0.0,0.0,0.0,0,0,100,29.74,29.68,6,0,6,0.00
2013-10-18,70.4,61.4,53.3,0.0,0.0,0.0,0,0,100,29.86,29.56,30,5,30,0.10
2013-10-19,71.1,56.6,45.0,0.0,0.0,0.0,0,0,100,29.94,29.73,15,4,15,0.00
2013-10-20,65.6,55.4,47.9,0.0,0.0,0.0,0,0,100,29.98,29.66,24,5,27,0.00
2013-10-21,70.7,53.1,40.0,0.0,0.0,0.0,0,0,100,30.09,29.97,15,3,15,0.00
2013-10-22,68.5,55.3,47.6,0.0,0.0,0.0,0,0,100,29.97,29.68,20,2,20,0.00
2013-10-23,58.8,48.0,39.7,0.0,0.0,0.0,0,0,100,29.77,29.56,9,1,10,0.00
2013-10-24,56.7,47.2,40.1,0.0,0.0,0.0,0,0,100,29.84,29.59,23,6,28,0.00
2013-10-25,51.7,42.3,35.2,0.0,0.0,0.0,0,0,100,30.12,29.84,22,4,22,0.00
2013-10-26,55.1,45.3,34.3,0.0,0.0,0.0,0,0,100,30.13,29.85,23,6,24,0.00
2013-10-27,58.3,47.9,39.9,0.0,0.0,0.0,0,0,100,30.02,29.79,19,5,23,0.04
2013-10-28,60.6,45.8,36.6,0.0,0.0,0.0,0,0,100,30.33,30.02,24,6,26,0.00
2013-10-29,53.4,39.2,28.8,0.0,0.0,0.0,0,0,100,30.44,30.33,11,2,11,0.00
2013-10-30,49.8,40.4,33.7,0.0,0.0,0.0,0,0,100,30.35,30.18,10,1,11,0.02
2013-10-31,60.7,46.9,33.0,0.0,0.0,0.0,0,0,100,30.22,29.76,20,2,21,0.10
2013-11-1,70.6,64.5,57.3,0.0,0.0,0.0,0,0,100,29.76,29.37,46,9,48,0.01
2013-11-2,69.8,55.5,48.1,0.0,0.0,0.0,0,0,100,29.70,29.56,21,1,22,0.00
2013-11-3,51.9,44.5,31.4,0.0,0.0,0.0,0,0,100,30.43,29.69,24,5,25,0.02
2013-11-4,47.7,35.9,26.7,0.0,0.0,0.0,0,0,100,30.67,30.43,15,3,18,0.00
2013-11-5,52.4,41.3,28.1,0.0,0.0,0.0,0,0,100,30.70,30.49,15,5,15,0.00
2013-11-6,62.7,50.3,41.0,0.0,0.0,0.0,0,0,100,30.49,29.99,17,4,18,0.00
2013-11-7,63.5,53.2,39.8,0.0,0.0,0.0,0,0,100,29.99,29.63,20,6,25,0.12
2013-11-8,48.7,39.7,34.1,0.0,0.0,0.0,0,0,100,30.04,29.78,26,5,30,0.00
2013-11-9,41.1,38.7,34.7,0.0,0.0,0.0,0,0,100,30.13,30.02,13,2,16,0.00
2013-11-10,52.9,45.3,40.6,0.0,0.0,0.0,0,0,100,30.02,29.71,19,4,21,0.07
2013-11-11,53.4,45.1,39.0,0.0,0.0,0.0,0,0,100,30.06,29.78,26,6,29,0.00
2013-11-12,47.9,35.3,27.3,0.0,0.0,0.0,0,0,100,30.15,29.84,26,9,28,0.03
2013-11-13,36.8,29.5,24.9,0.0,0.0,0.0,0,0,100,30.26,30.12,21,6,22,0.00
2013-11-14,52.7,40.1,27.8,0.0,0.0,0.0,0,0,100,30.12,29.99,20,6,20,0.00
2013-11-15,59.2,44.6,33.6,0.0,0.0,0.0,0,0,100,30.16,30.08,12,2,15,0.00
2013-11-16,58.1,43.5,35.4,0.0,0.0,0.0,0,0,100,30.30,30.15,10,1,11,0.00
2013-11-17,50.2,43.5,33.7,0.0,0.0,0.0,0,0,100,30.31,29.84,13,1,14,0.09
2013-11-18,66.2,55.3,48.2,0.0,0.0,0.0,0,0,100,29.85,29.48,24,5,27,0.21
2013-11-19,48.2,38.7,31.9,0.0,0.0,0.0,0,0,100,30.24,29.61,31,10,34,0.00
2013-11-20,43.2,33.5,27.9,0.0,0.0,0.0,0,0,100,30.61,30.23,26,5,27,0.00
2013-11-21,48.7,35.7,24.3,0.0,0.0,0.0,0,0,100,30.62,30.34,13,3,14,0.00
2013-11-22,43.9,40.5,37.3,0.0,0.0,0.0,0,0,100,30.34,29.78,11,2,11,0.15
2013-11-23,45.4,37.9,29.6,0.0,0.0,0.0,0,0,100,29.87,29.73,27,8,28,0.00
2013-11-24,29.9,23.8,19.4,0.0,0.0,0.0,0,0,100,30.13,29.73,49,14,49,0.00
2013-11-25,31.4,24.8,17.6,0.0,0.0,0.0,0,0,100,30.32,30.13,20,7,28,0.00
2013-11-26,42.8,34.4,28.9,0.0,0.0,0.0,0,0,100,30.32,30.06,18,4,19,0.15
2013-11-27,57.7,47.5,36.0,0.0,0.0,0.0,0,0,100,30.06,29.19,37,8,41,1.67
2013-11-28,36.5,30.8,23.4,0.0,0.0,0.0,0,0,100,30.41,29.38,18,6,36,0.00
2013-11-29,32.1,24.5,18.6,0.0,0.0,0.0,0,0,100,30.73,30.40,20,3,21,0.00
2013-11-30,37.7,25.8,14.2,0.0,0.0,0.0,0,0,100,30.77,30.41,11,2,11,0.00
2013-12-1,39.2,35.1,30.9,0.0,0.0,0.0,0,0,100,30.41,30.00,12,2,12,0.17
2013-12-2,39.4,36.9,35.0,0.0,0.0,0.0,0,0,100,30.00,29.91,12,2,13,0.00
2013-12-3,47.7,38.0,34.5,0.0,0.0,0.0,0,0,100,29.92,29.82,15,3,15,0.00
2013-12-4,41.7,35.4,31.3,0.0,0.0,0.0,0,0,100,30.18,29.91,16,2,18,0.00
2013-12-5,46.3,39.8,30.7,0.0,0.0,0.0,0,0,100,30.22,29.88,12,1,12,0.02
2013-12-6,50.6,43.9,33.0,0.0,0.0,0.0,0,0,100,30.13,29.83,17,3,20,0.11
2013-12-7,40.6,32.8,26.4,0.0,0.0,0.0,0,0,100,30.43,30.06,22,4,24,0.12
2013-12-8,31.6,27.4,23.1,0.0,0.0,0.0,0,0,100,30.57,30.43,13,1,13,0.00
2013-12-9,41.6,34.7,28.0,0.0,0.0,0.0,0,0,100,30.48,29.85,22,6,23,0.31
2013-12-10,35.2,31.4,24.2,0.0,0.0,0.0,0,0,100,29.95,29.75,18,6,19,0.00
2013-12-11,33.9,26.8,22.3,0.0,0.0,0.0,0,0,100,30.17,29.95,24,8,28,0.00
2013-12-12,24.8,20.2,16.1,0.0,0.0,0.0,0,0,100,30.25,30.03,24,6,26,0.00
2013-12-13,31.1,20.5,11.9,0.0,0.0,0.0,0,0,100,30.40,29.95,23,8,24,0.00
2013-12-14,28.8,16.5,7.8,0.0,0.0,0.0,0,0,100,30.61,30.20,25,5,28,0.00
2013-12-15,34.2,26.5,19.1,0.0,0.0,0.0,0,0,100,30.20,29.40,37,5,39,0.59
2013-12-16,29.0,22.7,13.8,0.0,0.0,0.0,0,0,100,30.20,29.70,22,3,26,0.01
2013-12-17,22.6,13.2,3.8,0.0,0.0,0.0,0,0,100,30.28,29.95,17,3,18,0.00
2013-12-18,34.4,25.6,14.5,0.0,0.0,0.0,0,0,100,30.03,29.85,20,6,21,0.15
2013-12-19,40.7,32.4,27.2,0.0,0.0,0.0,0,0,100,30.08,29.93,23,6,23,0.11
2013-12-20,44.4,37.7,32.3,0.0,0.0,0.0,0,0,100,30.10,29.88,10,1,10,0.00
2013-12-21,53.8,44.1,36.7,0.0,0.0,0.0,0,0,100,29.92,29.82,10,0,11,0.00
2013-12-22,44.7,34.9,30.7,0.0,0.0,0.0,0,0,100,30.03,29.79,21,3,24,0.22
2013-12-23,35.4,32.1,29.6,0.0,0.0,0.0,0,0,100,30.10,29.96,11,0,11,0.31
2013-12-24,35.0,30.8,24.5,0.0,0.0,0.0,0,0,100,30.18,30.03,20,3,20,0.00
2013-12-25,26.0,18.6,10.6,0.0,0.0,0.0,0,0,100,30.53,30.18,24,5,24,0.00
2013-12-26,33.9,24.0,18.4,0.0,0.0,0.0,0,0,100,30.49,30.05,14,2,14,0.00
2013-12-27,34.2,27.5,21.6,0.0,0.0,0.0,0,0,100,30.23,30.15,19,4,19,0.01
2013-12-28,45.2,34.1,24.1,0.0,0.0,0.0,0,0,100,30.18,29.93,16,4,18,0.01
2013-12-29,40.4,35.7,30.7,0.0,0.0,0.0,0,0,100,30.01,29.40,22,3,23,1.09
2013-12-30,41.9,31.2,15.2,0.0,0.0,0.0,0,0,100,30.16,29.47,25,6,28,0.00
2013-12-31,23.7,16.4,9.0,0.0,0.0,0.0,0,0,100,30.17,30.01,18,4,18,0.00
2014-1-1,28.4,21.1,17.3,0.0,0.0,0.0,0,0,100,30.37,30.14,21,6,24,0.00
2014-1-2,20.4,8.4,-1.8,0.0,0.0,0.0,0,0,100,30.36,29.91,21,7,26,0.00